Country
Station

 

Weather  for  Gaylord, Otsego County Airport  -  United States    United States

  
6 °C (43 °F)
    
 
 

Current METAR for Gaylord, Otsego County Airport is :

KGLR 192053Z AUTO 32009G19KT 280V360 10SM CLR 06/M08 A3022 RMK AO2 SLP250 T00561083 51015

 

This is a report for Gaylord, Otsego County Airport - United States.
 
The report was made 36 minutes ago, at 20:53 UTC .
The wind was blowing at a speed of 4.6 meters per second (10.4 miles per hour) with gusts up to 9.8 meters per second (21.9 miles per hour) from northwest (320°), varying between west (280°) and north (360°).
 
The temperature was 6 °C (43 °F), with a dew-point at -8 °C (18 °F).
The atmospheric pressure was 1023 hPa (30.22 inHg).
The relative humidity was 35.8%.
 
The sky was clear.
 
The overall visibility was 16.1 kilometers (10.0 miles).
 

 
 
 
 

Country :   A   B   C   D   E   F   G   H   I   J   K   L   M   N   O   P   Q   R   S   T   U   V   W   Y   Z

 

Site Info  |  Disclaimer  |  Credits  |  Privacy
Contact us  |  Add to favorites
© 2013-2018 METARs - All rights reserved